createdAt,value
2019-04-03T00:01:59.305Z,53.50
2019-04-03T00:04:26.888Z,52.20
2019-04-03T00:06:54.577Z,51.60
2019-04-03T00:09:22.222Z,51.60
2019-04-03T00:11:49.877Z,51.70
2019-04-03T00:14:17.647Z,51.40
2019-04-03T00:16:45.485Z,51.40
2019-04-03T00:19:13.888Z,51.40
2019-04-03T00:21:41.430Z,51.90
2019-04-03T00:24:10.054Z,51.70
2019-04-03T00:26:37.568Z,51.40
2019-04-03T00:29:05.129Z,51.40
2019-04-03T00:31:32.577Z,51.40
2019-04-03T00:34:00.428Z,51.70
2019-04-03T00:36:28.026Z,51.90
2019-04-03T00:38:56.697Z,51.90
2019-04-03T00:41:24.738Z,51.60
2019-04-03T00:43:54.429Z,51.40
2019-04-03T00:46:24.423Z,51.40
2019-04-03T00:48:52.275Z,51.60
2019-04-03T00:51:19.693Z,51.90
2019-04-03T00:53:47.261Z,51.10
2019-04-03T00:56:14.898Z,51.30
2019-04-03T00:58:42.613Z,52.00
2019-04-03T01:01:10.910Z,52.80
2019-04-03T01:03:39.150Z,53.20
2019-04-03T01:06:06.964Z,53.40
2019-04-03T01:08:34.538Z,53.90
2019-04-03T01:11:02.285Z,54.50
2019-04-03T01:13:31.335Z,55.20
2019-04-03T01:16:02.070Z,54.30
2019-04-03T01:18:28.872Z,53.90
2019-04-03T01:20:56.512Z,54.90
2019-04-03T01:23:24.015Z,57.20
2019-04-03T01:25:51.527Z,58.60
2019-04-03T01:28:19.954Z,59.80
2019-04-03T01:30:47.441Z,59.30
2019-04-03T01:33:16.475Z,59.60
2019-04-03T01:35:47.098Z,61.20
2019-04-03T01:38:13.737Z,61.20
2019-04-03T01:40:41.186Z,63.10
2019-04-03T01:43:08.671Z,64.80
2019-04-03T01:45:36.147Z,67.00
2019-04-03T01:48:03.714Z,67.00
2019-04-03T01:50:31.373Z,62.30
2019-04-03T01:53:00.214Z,65.70
2019-04-03T01:55:28.511Z,62.30
2019-04-03T01:57:56.127Z,58.30
2019-04-03T02:00:23.679Z,59.00
2019-04-03T02:02:51.169Z,59.50
2019-04-03T02:05:18.747Z,59.00
2019-04-03T02:07:46.290Z,60.50
2019-04-03T02:10:17.824Z,61.20
2019-04-03T02:12:45.838Z,62.20
2019-04-03T02:15:13.345Z,62.70
2019-04-03T02:17:41.123Z,62.20
2019-04-03T02:20:09.023Z,63.50
2019-04-03T02:22:36.744Z,63.30
2019-04-03T02:25:05.160Z,66.80
2019-04-03T02:27:33.293Z,63.30
2019-04-03T02:30:01.411Z,65.00
2019-04-03T02:32:29.209Z,68.90
2019-04-03T02:34:56.796Z,69.60
2019-04-03T02:37:24.390Z,70.70
2019-04-03T02:39:51.855Z,67.00
2019-04-03T02:42:19.390Z,68.10
2019-04-03T02:44:48.382Z,67.60
2019-04-03T02:47:16.341Z,67.60
2019-04-03T02:49:44.024Z,69.10
2019-04-03T02:52:12.301Z,71.30
2019-04-03T02:54:41.470Z,73.70
2019-04-03T02:57:09.231Z,75.20
2019-04-03T02:59:36.786Z,75.60
2019-04-03T03:02:04.869Z,76.90
2019-04-03T03:04:32.797Z,78.60
2019-04-03T03:07:03.346Z,79.30
2019-04-03T03:09:30.610Z,80.40
2019-04-03T03:11:59.094Z,80.80
2019-04-03T03:14:27.956Z,81.20
2019-04-03T03:16:58.243Z,81.50
2019-04-03T03:19:26.405Z,82.50
2019-04-03T03:21:58.840Z,82.70
2019-04-03T03:24:29.413Z,84.00
2019-04-03T03:26:59.651Z,84.30
2019-04-03T03:29:28.150Z,84.10
2019-04-03T03:32:08.014Z,83.40
2019-04-03T03:34:47.593Z,77.40
2019-04-03T03:37:00.109Z,76.10
2019-04-03T03:39:26.010Z,76.90
2019-04-03T03:41:57.425Z,78.40
2019-04-03T03:44:25.753Z,78.20
2019-04-03T03:46:53.984Z,78.90
2019-04-03T03:49:23.552Z,80.20
2019-04-03T03:51:51.567Z,81.00
2019-04-03T03:54:22.711Z,80.60
2019-04-03T03:56:50.835Z,79.70
2019-04-03T03:59:19.098Z,80.40
2019-04-03T04:01:47.579Z,80.80
2019-04-03T04:04:16.039Z,78.70
2019-04-03T04:06:43.780Z,81.00
2019-04-03T04:09:11.519Z,80.60
2019-04-03T04:11:39.902Z,80.60
2019-04-03T04:14:07.628Z,79.70
2019-04-03T04:16:37.035Z,79.90
2019-04-03T04:19:05.450Z,79.70
2019-04-03T04:21:33.788Z,78.60
2019-04-03T04:24:01.465Z,78.90
2019-04-03T04:26:29.844Z,79.50
2019-04-03T04:28:59.091Z,82.10
2019-04-03T04:31:26.983Z,82.80
2019-04-03T04:33:54.558Z,84.10
2019-04-03T04:36:24.314Z,82.70
2019-04-03T04:38:51.794Z,82.70
2019-04-03T04:41:19.442Z,82.30
2019-04-03T04:43:47.003Z,82.10
2019-04-03T04:46:15.209Z,81.40
2019-04-03T04:48:43.056Z,82.50
2019-04-03T04:51:12.005Z,82.70
2019-04-03T04:53:40.320Z,83.80
2019-04-03T04:56:07.981Z,84.10
2019-04-03T04:58:35.495Z,84.10
2019-04-03T05:01:03.194Z,84.30
2019-04-03T05:03:31.016Z,85.50
2019-04-03T05:05:59.066Z,86.20
2019-04-03T05:08:26.647Z,87.50
2019-04-03T05:10:54.278Z,88.10
2019-04-03T05:13:21.865Z,88.10
2019-04-03T05:15:49.462Z,88.10
2019-04-03T05:18:17.077Z,88.10
2019-04-03T05:20:44.626Z,89.20
2019-04-03T05:23:12.354Z,89.60
2019-04-03T05:25:41.470Z,89.40
2019-04-03T05:28:09.109Z,90.20
2019-04-03T05:30:38.026Z,90.50
2019-04-03T05:33:05.857Z,90.60
2019-04-03T05:35:33.705Z,91.20
2019-04-03T05:38:01.226Z,91.70
2019-04-03T05:40:30.011Z,92.20
2019-04-03T05:42:58.108Z,92.30
2019-04-03T05:45:27.048Z,92.10
2019-04-03T05:47:54.556Z,92.00
2019-04-03T05:50:22.094Z,92.00
2019-04-03T05:52:49.569Z,91.90
2019-04-03T05:55:17.133Z,92.10
2019-04-03T05:57:45.738Z,92.00
2019-04-03T06:00:14.040Z,91.70
2019-04-03T06:02:41.818Z,91.40
2019-04-03T06:05:11.478Z,91.40
2019-04-03T06:07:38.903Z,90.50
2019-04-03T06:10:06.570Z,90.20
2019-04-03T06:12:36.671Z,89.70
2019-04-03T06:15:04.913Z,90.20
2019-04-03T06:17:32.396Z,90.50
2019-04-03T06:19:59.926Z,90.80
2019-04-03T06:22:27.510Z,91.00
2019-04-03T06:24:56.429Z,91.30
2019-04-03T06:27:27.419Z,90.80
2019-04-03T06:29:55.316Z,91.50
2019-04-03T06:32:24.571Z,91.10
2019-04-03T06:34:52.444Z,91.20
2019-04-03T06:37:20.174Z,91.30
2019-04-03T06:39:49.303Z,91.30
2019-04-03T06:42:16.821Z,90.40
2019-04-03T06:44:44.306Z,90.10
2019-04-03T06:47:11.952Z,89.70
2019-04-03T06:49:40.281Z,89.40
2019-04-03T06:52:08.718Z,89.40
2019-04-03T06:54:36.287Z,88.40
2019-04-03T06:57:03.951Z,87.90
2019-04-03T06:59:31.688Z,88.40
2019-04-03T07:02:05.396Z,88.10
2019-04-03T07:04:32.834Z,89.00
2019-04-03T07:07:00.378Z,88.10
2019-04-03T07:09:35.152Z,85.80
2019-04-03T07:11:57.705Z,82.80
2019-04-03T07:14:26.756Z,81.40
2019-04-03T07:16:54.785Z,81.50
2019-04-03T07:19:22.242Z,82.50
2019-04-03T07:21:49.705Z,81.20
2019-04-03T07:24:17.534Z,80.80
2019-04-03T07:26:45.011Z,80.60
2019-04-03T07:29:16.281Z,76.10
2019-04-03T07:31:41.898Z,76.70
2019-04-03T07:34:09.555Z,75.80
2019-04-03T07:36:37.079Z,73.30
2019-04-03T07:39:09.720Z,72.20
2019-04-03T07:41:36.303Z,70.40
2019-04-03T07:44:04.339Z,72.00
2019-04-03T07:46:33.249Z,71.10
2019-04-03T07:49:01.473Z,71.30
2019-04-03T07:51:29.229Z,70.90
2019-04-03T07:53:57.329Z,67.90
2019-04-03T07:56:25.890Z,60.90
2019-04-03T07:58:54.249Z,56.30
2019-04-03T08:01:21.882Z,54.90
2019-04-03T08:03:51.650Z,51.70
2019-04-03T08:06:19.182Z,53.20
2019-04-03T08:08:46.964Z,52.90
2019-04-03T08:11:15.322Z,53.70
2019-04-03T08:13:42.955Z,53.90
2019-04-03T08:16:10.747Z,56.10
2019-04-03T08:18:38.391Z,56.00
2019-04-03T08:21:06.049Z,57.70
2019-04-03T08:23:36.056Z,56.40
2019-04-03T08:26:03.013Z,54.50
2019-04-03T08:28:30.844Z,54.30
2019-04-03T08:30:58.581Z,48.10
2019-04-03T08:33:27.557Z,47.30
2019-04-03T08:35:55.702Z,43.80
2019-04-03T08:38:23.299Z,41.70
2019-04-03T08:40:57.219Z,40.10
2019-04-03T08:43:24.945Z,44.40
2019-04-03T08:45:52.789Z,45.90
2019-04-03T08:48:23.973Z,44.90
2019-04-03T08:50:53.351Z,43.80
2019-04-03T08:53:21.238Z,42.90
2019-04-03T08:55:51.852Z,41.70
2019-04-03T08:58:23.600Z,44.10
2019-04-03T09:00:51.324Z,45.80
2019-04-03T09:03:18.781Z,47.30
2019-04-03T09:05:46.576Z,49.70
2019-04-03T09:08:14.750Z,49.90
2019-04-03T09:10:45.752Z,52.30
2019-04-03T09:13:17.346Z,52.90
2019-04-03T09:15:43.054Z,53.90
2019-04-03T09:18:10.605Z,53.20
2019-04-03T09:20:41.110Z,53.40
2019-04-03T09:23:09.162Z,53.70
2019-04-03T09:25:36.940Z,54.50
2019-04-03T09:28:04.707Z,55.50
2019-04-03T09:30:32.141Z,56.70
2019-04-03T09:33:00.399Z,57.20
2019-04-03T09:35:28.730Z,56.70
2019-04-03T09:37:58.247Z,57.80
2019-04-03T09:40:25.986Z,59.50
2019-04-03T09:42:53.648Z,58.30
2019-04-03T09:45:21.358Z,59.60
2019-04-03T09:47:49.056Z,59.90
2019-04-03T09:50:17.133Z,57.80
2019-04-03T09:52:48.980Z,57.20
2019-04-03T09:55:14.259Z,57.50
2019-04-03T09:57:42.211Z,56.30
2019-04-03T10:00:11.345Z,54.50
2019-04-03T10:02:39.302Z,52.60
2019-04-03T10:05:07.489Z,49.00
2019-04-03T10:07:37.201Z,45.90
2019-04-03T10:10:06.586Z,43.50
2019-04-03T10:12:34.329Z,43.20
2019-04-03T10:15:02.709Z,40.50
2019-04-03T10:17:30.366Z,42.30
2019-04-03T10:19:57.919Z,39.40
2019-04-03T10:22:25.446Z,39.10
2019-04-03T10:24:53.043Z,39.20
2019-04-03T10:27:20.551Z,39.80
2019-04-03T10:29:50.278Z,38.80
2019-04-03T10:32:17.411Z,41.10
2019-04-03T10:34:44.965Z,40.50
2019-04-03T10:37:14.442Z,40.80
2019-04-03T10:39:44.469Z,37.30
2019-04-03T10:42:11.803Z,36.80
2019-04-03T10:44:39.366Z,34.80
2019-04-03T10:47:07.030Z,35.70
2019-04-03T10:49:34.926Z,36.30
2019-04-03T10:52:02.682Z,35.00
2019-04-03T10:54:30.511Z,35.10
2019-04-03T10:56:58.151Z,31.90
2019-04-03T10:59:26.452Z,32.50
2019-04-03T11:01:54.104Z,31.00
2019-04-03T11:04:22.249Z,31.30
2019-04-03T11:06:50.451Z,30.90
2019-04-03T11:09:18.149Z,27.10
2019-04-03T11:11:45.733Z,25.30
2019-04-03T11:14:13.301Z,25.50
2019-04-03T11:16:40.885Z,25.90
2019-04-03T11:19:08.551Z,25.50
2019-04-03T11:21:36.143Z,26.40
2019-04-03T11:24:05.891Z,23.00
2019-04-03T11:26:33.179Z,20.80
2019-04-03T11:29:00.758Z,18.60
2019-04-03T11:31:31.511Z,17.60
2019-04-03T11:33:58.818Z,17.50
2019-04-03T11:36:30.543Z,18.70
2019-04-03T11:39:10.702Z,21.20
2019-04-03T11:41:25.787Z,20.10
2019-04-03T11:43:53.534Z,18.80
2019-04-03T11:46:21.159Z,16.70
2019-04-03T11:48:49.242Z,13.90
2019-04-03T11:51:16.905Z,13.10
2019-04-03T11:53:45.818Z,11.20
2019-04-03T11:56:14.176Z,9.70
2019-04-03T11:58:42.073Z,9.50
2019-04-03T12:01:10.413Z,8.10
2019-04-03T12:03:37.972Z,8.50
2019-04-03T12:06:05.701Z,7.50
2019-04-03T12:08:34.907Z,8.00
2019-04-03T12:11:05.428Z,7.20
2019-04-03T12:13:32.156Z,6.60
2019-04-03T12:15:59.719Z,7.30
2019-04-03T12:18:27.369Z,7.30
2019-04-03T12:20:54.895Z,8.90
2019-04-03T12:23:22.566Z,11.20
2019-04-03T12:25:50.194Z,12.80
2019-04-03T12:28:18.889Z,14.20
2019-04-03T12:30:46.920Z,15.10
2019-04-03T12:33:15.828Z,17.00
2019-04-03T12:35:43.984Z,17.90
2019-04-03T12:38:12.600Z,18.60
2019-04-03T12:40:40.156Z,19.00
2019-04-03T12:43:07.737Z,20.10
2019-04-03T12:45:35.776Z,19.40
2019-04-03T12:48:03.611Z,19.80
2019-04-03T12:50:31.207Z,21.90
2019-04-03T12:52:59.879Z,24.20
2019-04-03T12:55:28.009Z,24.90
2019-04-03T12:57:55.727Z,26.00
2019-04-03T13:00:25.851Z,26.90
2019-04-03T13:02:54.462Z,27.60
2019-04-03T13:05:22.244Z,27.70
2019-04-03T13:07:49.974Z,29.00
2019-04-03T13:10:18.155Z,30.10
2019-04-03T13:12:46.050Z,30.40
2019-04-03T13:15:15.019Z,32.10
2019-04-03T13:17:45.027Z,32.70
2019-04-03T13:20:14.853Z,35.70
2019-04-03T13:22:43.327Z,42.30
2019-04-03T13:25:11.870Z,44.40
2019-04-03T13:27:39.775Z,46.40
2019-04-03T13:30:11.477Z,47.80
2019-04-03T13:32:38.437Z,47.60
2019-04-03T13:35:06.666Z,46.20
2019-04-03T13:37:34.334Z,45.30
2019-04-03T13:40:05.683Z,44.40
2019-04-03T13:42:31.886Z,42.70
2019-04-03T13:45:00.226Z,43.20
2019-04-03T13:47:27.982Z,40.60
2019-04-03T13:49:58.521Z,37.30
2019-04-03T13:52:39.132Z,32.50
2019-04-03T13:54:58.367Z,34.10
2019-04-03T13:57:25.377Z,34.40
2019-04-03T13:59:53.088Z,35.60
2019-04-03T14:02:20.834Z,38.00
2019-04-03T14:04:49.080Z,38.90
2019-04-03T14:07:16.953Z,40.10
2019-04-03T14:09:45.065Z,41.80
2019-04-03T14:12:12.673Z,41.20
2019-04-03T14:14:41.248Z,40.00
2019-04-03T14:17:09.525Z,37.90
2019-04-03T14:19:44.551Z,38.20
2019-04-03T14:22:06.958Z,38.00
2019-04-03T14:24:41.405Z,38.50
2019-04-03T14:27:16.472Z,38.50
2019-04-03T14:29:33.935Z,40.00
2019-04-03T14:32:02.142Z,42.00
2019-04-03T14:34:30.650Z,41.70
2019-04-03T14:36:59.281Z,43.00
2019-04-03T14:39:26.985Z,43.80
2019-04-03T14:41:55.108Z,44.00
2019-04-03T14:44:23.121Z,44.90
2019-04-03T14:46:51.655Z,47.00
2019-04-03T14:49:19.910Z,48.20
2019-04-03T14:51:48.694Z,49.60
2019-04-03T14:54:16.713Z,50.00
2019-04-03T14:56:44.519Z,50.50
2019-04-03T14:59:14.005Z,51.90
2019-04-03T15:01:41.581Z,52.80
2019-04-03T15:04:09.793Z,52.00
2019-04-03T15:06:37.955Z,49.90
2019-04-03T15:09:08.129Z,49.00
2019-04-03T15:11:36.416Z,46.10
2019-04-03T15:14:04.373Z,47.20
2019-04-03T15:16:32.319Z,48.10
2019-04-03T15:19:01.933Z,49.40
2019-04-03T15:21:29.464Z,51.10
2019-04-03T15:23:57.117Z,52.60
2019-04-03T15:26:25.189Z,53.50
2019-04-03T15:28:52.735Z,55.40
2019-04-03T15:31:20.274Z,57.70
2019-04-03T15:33:48.122Z,57.40
2019-04-03T15:36:16.106Z,58.30
2019-04-03T15:38:45.300Z,59.60
2019-04-03T15:41:13.286Z,62.20
2019-04-03T15:43:41.029Z,63.50
2019-04-03T15:46:08.683Z,66.30
2019-04-03T15:48:37.597Z,68.30
2019-04-03T15:51:07.194Z,70.70
2019-04-03T15:53:35.265Z,72.00
2019-04-03T15:56:03.593Z,73.90
2019-04-03T15:58:31.253Z,75.90
2019-04-03T16:00:59.509Z,76.30
2019-04-03T16:03:27.452Z,77.30
2019-04-03T16:05:55.297Z,77.60
2019-04-03T16:08:23.308Z,77.30
2019-04-03T16:10:51.599Z,76.50
2019-04-03T16:13:21.575Z,74.50
2019-04-03T16:15:50.466Z,74.80
2019-04-03T16:18:21.403Z,75.20
2019-04-03T16:20:51.224Z,72.80
2019-04-03T16:23:18.745Z,72.60
2019-04-03T16:25:48.619Z,73.30
2019-04-03T16:28:17.459Z,73.70
2019-04-03T16:30:48.766Z,74.30
2019-04-03T16:33:21.519Z,75.80
2019-04-03T16:35:46.571Z,78.20
2019-04-03T16:38:14.395Z,80.80
2019-04-03T16:40:42.202Z,82.50
2019-04-03T16:43:10.295Z,83.20
2019-04-03T16:45:39.538Z,85.10
2019-04-03T16:48:07.588Z,84.50
2019-04-03T16:50:35.257Z,85.50
2019-04-03T16:53:04.077Z,87.70
2019-04-03T16:55:34.817Z,88.10
2019-04-03T16:58:02.448Z,87.50
2019-04-03T17:00:30.106Z,88.60
2019-04-03T17:02:58.192Z,88.80
2019-04-03T17:05:25.920Z,90.10
2019-04-03T17:07:54.881Z,88.80
2019-04-03T17:10:23.290Z,91.20
2019-04-03T17:12:51.072Z,92.30
2019-04-03T17:15:19.090Z,92.20
2019-04-03T17:17:47.553Z,92.00
2019-04-03T17:20:17.629Z,91.50
2019-04-03T17:22:48.237Z,92.40
2019-04-03T17:25:16.169Z,92.20
2019-04-03T17:27:54.081Z,92.00
2019-04-03T17:30:13.722Z,92.70
2019-04-03T17:32:41.436Z,91.80
2019-04-03T17:35:09.165Z,91.50
2019-04-03T17:37:37.224Z,92.10
2019-04-03T17:40:08.388Z,92.30
2019-04-03T17:42:37.109Z,92.40
2019-04-03T17:45:06.042Z,92.90
2019-04-03T17:47:34.914Z,92.60
2019-04-03T17:50:06.097Z,93.20
2019-04-03T17:52:32.014Z,94.00
2019-04-03T17:55:00.562Z,94.40
2019-04-03T17:57:29.371Z,94.30
2019-04-03T17:59:57.086Z,94.00
2019-04-03T18:02:25.110Z,93.90
2019-04-03T18:04:55.024Z,93.80
2019-04-03T18:07:22.677Z,93.70
2019-04-03T18:09:50.374Z,93.00
2019-04-03T18:12:21.794Z,92.80
2019-04-03T18:14:48.890Z,93.30
2019-04-03T18:17:19.331Z,93.40
2019-04-03T18:19:46.564Z,93.40
2019-04-03T18:22:14.399Z,93.00
2019-04-03T18:24:42.193Z,93.10
2019-04-03T18:27:10.172Z,92.50
2019-04-03T18:29:38.149Z,92.70
2019-04-03T18:32:07.948Z,92.90
2019-04-03T18:34:35.654Z,91.50
2019-04-03T18:37:04.088Z,92.70
2019-04-03T18:39:32.124Z,93.30
2019-04-03T18:42:00.128Z,92.70
2019-04-03T18:44:30.111Z,93.10
2019-04-03T18:46:59.031Z,92.90
2019-04-03T18:49:27.204Z,92.20
2019-04-03T18:51:54.801Z,91.90
2019-04-03T18:54:22.749Z,92.30
2019-04-03T18:56:50.528Z,92.10
2019-04-03T18:59:18.697Z,92.60
2019-04-03T19:01:49.571Z,91.40
2019-04-03T19:04:17.734Z,92.30
2019-04-03T19:06:45.756Z,91.40
2019-04-03T19:09:14.178Z,91.80
2019-04-03T19:11:41.952Z,92.50
2019-04-03T19:14:09.969Z,91.90
2019-04-03T19:16:45.134Z,92.40
2019-04-03T19:19:10.128Z,92.60
2019-04-03T19:21:37.766Z,93.10
2019-04-03T19:24:06.767Z,93.10
2019-04-03T19:26:37.939Z,93.40
2019-04-03T19:29:06.340Z,92.80
2019-04-03T19:31:35.220Z,92.70
2019-04-03T19:34:07.409Z,92.10
2019-04-03T19:36:36.007Z,92.50
2019-04-03T19:39:06.577Z,92.50
2019-04-03T19:41:37.634Z,93.20
2019-04-03T19:44:05.303Z,93.30
2019-04-03T19:46:33.046Z,93.60
2019-04-03T19:49:02.007Z,94.10
2019-04-03T19:51:29.830Z,93.80
2019-04-03T19:53:59.565Z,94.40
2019-04-03T19:56:27.224Z,94.20
2019-04-03T19:58:54.945Z,94.20
2019-04-03T20:01:24.031Z,93.60
2019-04-03T20:03:51.826Z,93.50
2019-04-03T20:06:22.617Z,94.10
2019-04-03T20:08:49.066Z,94.50
2019-04-03T20:11:17.062Z,93.90
2019-04-03T20:13:44.739Z,94.20
2019-04-03T20:16:12.361Z,94.40
2019-04-03T20:18:39.918Z,94.60
2019-04-03T20:21:07.450Z,94.30
2019-04-03T20:23:34.990Z,94.10
2019-04-03T20:26:04.664Z,94.30
2019-04-03T20:28:32.156Z,93.90
2019-04-03T20:31:00.071Z,94.30
2019-04-03T20:33:27.630Z,94.20
2019-04-03T20:35:55.350Z,93.90
2019-04-03T20:38:22.955Z,93.20
2019-04-03T20:40:50.518Z,93.50
2019-04-03T20:43:18.108Z,92.30
2019-04-03T20:45:45.634Z,92.20
2019-04-03T20:48:13.207Z,92.50
2019-04-03T20:50:40.869Z,92.90
2019-04-03T20:53:08.519Z,92.50
2019-04-03T20:55:36.170Z,92.80
2019-04-03T20:58:05.867Z,92.50
2019-04-03T21:00:33.357Z,92.00
2019-04-03T21:03:01.025Z,92.10
2019-04-03T21:05:28.734Z,92.40
2019-04-03T21:07:56.393Z,92.50
2019-04-03T21:10:24.181Z,92.50
2019-04-03T21:12:51.664Z,91.70
2019-04-03T21:15:19.442Z,92.20
2019-04-03T21:17:49.766Z,91.70
2019-04-03T21:20:16.525Z,92.00
2019-04-03T21:22:44.065Z,92.60
2019-04-03T21:25:11.764Z,92.50
2019-04-03T21:27:40.116Z,92.60
2019-04-03T21:30:08.604Z,92.40
2019-04-03T21:32:36.749Z,92.10
2019-04-03T21:35:04.574Z,91.50
2019-04-03T21:37:33.501Z,91.70
2019-04-03T21:40:04.675Z,91.80
2019-04-03T21:42:31.318Z,91.80
2019-04-03T21:45:02.352Z,91.70
2019-04-03T21:47:31.517Z,91.70
2019-04-03T21:49:59.354Z,91.80
2019-04-03T21:52:27.421Z,91.50
2019-04-03T21:54:55.029Z,91.20
2019-04-03T21:57:22.947Z,91.60
2019-04-03T21:59:50.733Z,91.50
2019-04-03T22:02:18.312Z,92.10
2019-04-03T22:04:45.934Z,91.50
2019-04-03T22:07:13.732Z,92.00
2019-04-03T22:09:41.211Z,92.60
2019-04-03T22:12:08.834Z,92.80
2019-04-03T22:14:36.327Z,92.70
2019-04-03T22:17:03.905Z,92.80
2019-04-03T22:19:31.472Z,92.30
2019-04-03T22:21:59.087Z,91.30
2019-04-03T22:24:26.694Z,90.20
2019-04-03T22:26:54.275Z,90.80
2019-04-03T22:29:21.792Z,90.80
2019-04-03T22:31:49.946Z,90.20
2019-04-03T22:34:17.739Z,90.50
2019-04-03T22:36:45.403Z,90.70
2019-04-03T22:39:13.996Z,90.80
2019-04-03T22:41:42.831Z,90.70
2019-04-03T22:44:11.147Z,90.70
2019-04-03T22:46:38.710Z,90.20
2019-04-03T22:49:06.483Z,89.70
2019-04-03T22:51:33.891Z,89.20
2019-04-03T22:54:01.372Z,88.80
2019-04-03T22:56:29.160Z,88.20
2019-04-03T22:58:56.718Z,87.30
2019-04-03T23:01:24.169Z,86.00
2019-04-03T23:03:51.645Z,85.10
2019-04-03T23:06:19.472Z,85.60
2019-04-03T23:08:47.054Z,86.00
2019-04-03T23:11:14.588Z,86.00
2019-04-03T23:13:42.108Z,85.80
2019-04-03T23:16:11.552Z,86.20
2019-04-03T23:18:39.274Z,86.00
2019-04-03T23:21:07.019Z,86.20
2019-04-03T23:23:34.546Z,86.00
2019-04-03T23:26:03.179Z,86.40
2019-04-03T23:28:33.719Z,86.00
2019-04-03T23:31:00.108Z,85.80
2019-04-03T23:33:27.668Z,85.80
2019-04-03T23:35:55.244Z,86.00
2019-04-03T23:38:22.769Z,85.60
2019-04-03T23:40:50.450Z,85.50
2019-04-03T23:43:17.954Z,84.90
2019-04-03T23:45:45.525Z,85.50
2019-04-03T23:48:13.040Z,85.30
2019-04-03T23:50:40.562Z,85.60
2019-04-03T23:53:08.199Z,85.30
2019-04-03T23:55:36.786Z,85.50
2019-04-03T23:58:04.423Z,85.60
